Terminal Aerodrome Forecast
Issued by NWS Memphis, TN

Home | Current Version | Previous Version | Text Only | Print | Product List | Glossary On
Versions: 1 2 3 4 5 6 7 8 9 10 11 12 13 14 15 16 17 18
000
FTUS44 KMEG 012007 AAA
TAFJBR
TAF AMD
KJBR 012007Z 0120/0218 25012G20KT P6SM -RA OVC050
     FM012100 27014G22KT P6SM VCSH OVC015
     FM020100 30015G23KT P6SM OVC025
     FM021400 32010KT P6SM OVC025=

USA.gov is the U.S. government's official web portal to all federal, state and local government web resources and services.